Time;durP1;ratioP1;P1;durP2;ratioP2;P2;SDS_P1;SDS_P2;PMS_P1;PMS_P2;Temp;Humidity;BMP_temperature;BMP_pressure;BME280_temperature;BME280_humidity;BME280_pressure;Samples;Min_cycle;Max_cycle;Signal;HPM_P1;HPM_P2
2024/04/08 00:00:32;;;;;;;11.73;4.40;;;;;;;20.26;52.26;100071.59;5410878;26;94647;-76
2024/04/08 00:02:58;;;;;;;9.90;4.13;;;;;;;20.28;52.58;100075.00;5411795;26;94512;-75
2024/04/08 00:05:24;;;;;;;9.35;4.53;;;;;;;20.07;52.22;100059.72;5412325;26;94753;-75
2024/04/08 00:07:53;;;;;;;12.00;4.97;;;;;;;20.02;52.54;100064.53;5351949;26;97791;-75
2024/04/08 00:10:19;;;;;;;10.57;3.83;;;;;;;20.10;52.74;100079.91;5351414;26;94609;-75
2024/04/08 00:12:45;;;;;;;7.07;3.55;;;;;;;20.03;52.74;100071.56;5408153;26;94623;-75
2024/04/08 00:15:12;;;;;;;8.77;4.20;;;;;;;20.08;52.44;100082.72;5388127;26;94509;-80
2024/04/08 00:17:40;;;;;;;10.88;4.13;;;;;;;20.07;52.76;100086.34;5384856;25;94803;-75
2024/04/08 00:20:06;;;;;;;13.70;4.07;;;;;;;20.07;52.98;100081.03;5364215;26;94705;-75
2024/04/08 00:22:32;;;;;;;5.63;3.72;;;;;;;20.09;52.64;100083.56;5411348;26;94636;-76
2024/04/08 00:24:57;;;;;;;9.85;4.10;;;;;;;20.03;52.89;100081.38;5380437;26;97101;-76
2024/04/08 00:27:23;;;;;;;11.80;4.45;;;;;;;20.11;52.91;100082.47;5411858;25;94762;-75
2024/04/08 00:29:48;;;;;;;8.25;3.83;;;;;;;20.09;52.88;100079.06;5380878;26;94832;-75
2024/04/08 00:32:14;;;;;;;9.77;4.82;;;;;;;20.07;53.27;100093.47;5380839;26;94596;-75
2024/04/08 00:34:40;;;;;;;12.15;5.15;;;;;;;20.03;53.23;100089.38;5412281;25;94647;-75
2024/04/08 00:37:06;;;;;;;7.88;3.92;;;;;;;20.02;52.96;100093.84;5410203;26;94489;-75
2024/04/08 00:39:33;;;;;;;8.63;4.07;;;;;;;19.95;53.58;100081.94;5380115;26;94682;-77
2024/04/08 00:41:58;;;;;;;10.57;3.80;;;;;;;19.90;53.31;100071.66;5341124;26;94471;-73
2024/04/08 00:44:24;;;;;;;11.98;3.97;;;;;;;19.90;53.14;100077.00;5397382;26;93935;-75
2024/04/08 00:46:50;;;;;;;7.95;4.15;;;;;;;19.68;53.36;100043.16;5384499;26;94680;-76
2024/04/08 00:49:16;;;;;;;8.52;4.45;;;;;;;19.88;53.72;100072.75;5453960;25;94706;-73
2024/04/08 00:51:43;;;;;;;7.05;3.70;;;;;;;19.78;53.53;100061.09;5397347;26;93922;-75
2024/04/08 00:54:09;;;;;;;7.78;3.78;;;;;;;19.81;53.60;100066.19;5362608;26;97240;-75
2024/04/08 00:56:36;;;;;;;9.52;4.30;;;;;;;19.80;53.62;100060.00;5391383;26;94740;-75
2024/04/08 00:59:03;;;;;;;3.83;2.83;;;;;;;19.62;54.16;100034.75;5395193;26;94587;-75
2024/04/08 01:01:28;;;;;;;9.00;3.50;;;;;;;19.64;54.33;100030.19;5455469;25;94631;-74
2024/04/08 01:03:56;;;;;;;7.15;3.67;;;;;;;19.81;53.96;100047.53;5397445;26;94626;-75
2024/04/08 01:06:22;;;;;;;5.47;3.38;;;;;;;19.82;54.23;100033.28;5397044;26;94687;-76
2024/04/08 01:08:48;;;;;;;4.50;2.70;;;;;;;19.84;54.18;100026.88;5391994;26;94720;-76
2024/04/08 01:11:13;;;;;;;11.23;3.30;;;;;;;19.78;54.64;100015.81;5394409;26;94607;-75
2024/04/08 01:13:39;;;;;;;5.35;3.10;;;;;;;19.85;54.77;100031.22;5393504;26;94564;-75
2024/04/08 01:16:05;;;;;;;5.82;2.92;;;;;;;19.89;55.17;100029.16;5364793;26;96961;-75
2024/04/08 01:18:31;;;;;;;6.72;2.72;;;;;;;19.98;54.87;100019.59;5457111;25;94631;-75
2024/04/08 01:20:56;;;;;;;3.63;2.33;;;;;;;19.92;55.04;100012.09;5398595;25;95291;-73
2024/04/08 01:23:24;;;;;;;4.32;2.47;;;;;;;20.05;55.03;100018.16;5424731;25;94663;-75
2024/04/08 01:25:49;;;;;;;5.03;2.00;;;;;;;20.12;54.85;100017.56;5391467;26;97169;-75
2024/04/08 01:28:15;;;;;;;13.20;2.67;;;;;;;20.20;54.04;99994.78;5393989;26;94751;-75
2024/04/08 01:30:42;;;;;;;4.20;2.30;;;;;;;20.30;54.04;100004.63;5366277;26;94696;-75
2024/04/08 01:33:07;;;;;;;5.88;2.80;;;;;;;20.38;54.13;100009.31;5455636;25;94655;-78
2024/04/08 01:35:33;;;;;;;3.67;2.35;;;;;;;20.44;54.13;100015.97;5394325;26;97419;-75
2024/04/08 01:37:59;;;;;;;6.03;2.83;;;;;;;20.25;54.39;100003.28;5398869;26;94664;-75
2024/04/08 01:40:24;;;;;;;8.63;3.15;;;;;;;20.36;53.85;100008.56;5457762;25;93655;-76
2024/04/08 01:42:50;;;;;;;5.03;2.85;;;;;;;20.27;54.42;99996.00;5391760;26;94619;-74
2024/04/08 01:45:15;;;;;;;6.28;3.00;;;;;;;20.30;54.36;100011.72;5391510;26;94643;-75
2024/04/08 01:47:41;;;;;;;4.93;2.90;;;;;;;20.07;55.12;99992.22;5393418;26;94755;-75
2024/04/08 01:50:06;;;;;;;3.97;2.80;;;;;;;20.18;55.10;100007.38;5397218;26;94746;-75
2024/04/08 01:52:32;;;;;;;4.85;2.92;;;;;;;19.98;55.42;99990.31;5455293;25;94662;-73
2024/04/08 01:54:57;;;;;;;4.57;2.50;;;;;;;19.84;55.95;99992.25;5396634;26;95391;-78
2024/04/08 01:57:23;;;;;;;5.05;2.40;;;;;;;19.96;55.84;100011.75;5394496;26;94586;-74
2024/04/08 01:59:48;;;;;;;5.70;2.67;;;;;;;19.83;56.35;100016.31;5395232;26;93768;-75
2024/04/08 02:02:14;;;;;;;6.28;3.00;;;;;;;19.90;56.18;100021.06;5365134;26;97192;-76
2024/04/08 02:04:39;;;;;;;4.93;2.63;;;;;;;19.82;55.98;99996.84;5363034;26;97887;-74
2024/04/08 02:07:05;;;;;;;3.97;2.80;;;;;;;19.78;56.01;100007.81;5395896;26;94872;-73
2024/04/08 02:09:30;;;;;;;5.05;2.92;;;;;;;19.76;56.76;100013.28;5457566;25;94699;-72
2024/04/08 02:11:56;;;;;;;2.67;2.40;;;;;;;19.76;56.29;100007.97;5452543;25;94615;-76
2024/04/08 02:14:21;;;;;;;3.80;2.95;;;;;;;19.67;56.90;100009.53;5388083;26;97196;-75
2024/04/08 02:16:47;;;;;;;4.60;3.10;;;;;;;19.69;56.64;100004.06;5390546;26;94767;-73
2024/04/08 02:19:12;;;;;;;4.88;3.85;;;;;;;19.58;56.65;99996.88;5455831;25;94683;-75
2024/04/08 02:21:38;;;;;;;6.00;3.33;;;;;;;19.39;57.45;99994.75;5453941;25;94618;-77
2024/04/08 02:24:04;;;;;;;6.88;3.05;;;;;;;19.55;57.00;100004.25;5365861;26;97801;-75
2024/04/08 02:26:30;;;;;;;7.00;3.55;;;;;;;19.54;56.95;99975.94;5396039;26;94830;-75
2024/04/08 02:28:58;;;;;;;5.68;3.25;;;;;;;19.65;56.22;99981.31;5427484;25;94593;-73
2024/04/08 02:31:24;;;;;;;6.00;3.67;;;;;;;19.47;56.86;99964.91;5387110;26;98088;-75
2024/04/08 02:33:49;;;;;;;4.57;3.47;;;;;;;19.56;56.84;99982.84;5361144;26;97340;-74
2024/04/08 02:36:15;;;;;;;6.18;3.55;;;;;;;19.46;56.30;99968.56;5393700;26;94714;-75
2024/04/08 02:38:40;;;;;;;11.05;4.15;;;;;;;19.63;56.32;99980.53;5448790;25;94614;-75
2024/04/08 02:41:06;;;;;;;5.60;3.75;;;;;;;19.50;56.16;99962.00;5393805;26;94642;-76
2024/04/08 02:43:32;;;;;;;5.05;3.45;;;;;;;19.60;56.21;99984.28;5397924;26;94663;-74
2024/04/08 02:45:58;;;;;;;5.20;3.58;;;;;;;19.49;56.25;99965.66;5420639;25;94669;-75
2024/04/08 02:48:23;;;;;;;6.68;3.90;;;;;;;19.56;56.39;99974.00;5395777;26;94619;-76
2024/04/08 02:50:51;;;;;;;4.38;3.63;;;;;;;19.36;56.22;99951.56;5425679;25;95282;-75
2024/04/08 02:53:16;;;;;;;7.13;3.72;;;;;;;19.38;56.21;99958.47;5395483;26;94654;-72
2024/04/08 02:55:42;;;;;;;4.75;4.18;;;;;;;19.36;56.57;99947.09;5363269;26;95223;-74
2024/04/08 02:58:08;;;;;;;9.45;4.25;;;;;;;19.42;56.41;99972.41;5394998;26;94645;-75
2024/04/08 03:00:39;;;;;;;4.82;3.65;;;;;;;19.33;56.87;99957.97;5366845;26;97258;-76
2024/04/08 03:03:06;;;;;;;6.68;3.42;;;;;;;19.29;57.07;99961.00;5363552;26;97573;-75
2024/04/08 03:05:32;;;;;;;10.15;5.97;;;;;;;19.23;57.27;99978.28;5389972;26;95207;-74
2024/04/08 03:07:57;;;;;;;5.72;4.00;;;;;;;19.13;56.86;99972.78;5393051;26;94609;-74
2024/04/08 03:10:23;;;;;;;4.95;4.00;;;;;;;18.92;58.08;99959.28;5394203;25;94737;-75
2024/04/08 03:12:48;;;;;;;7.65;4.80;;;;;;;18.78;57.97;99964.78;5394832;26;94729;-76
2024/04/08 03:15:14;;;;;;;6.60;4.25;;;;;;;18.85;58.14;99963.38;5362866;26;94650;-75
2024/04/08 03:17:40;;;;;;;6.85;4.22;;;;;;;18.84;58.23;99951.03;5425534;25;94537;-75
2024/04/08 03:20:06;;;;;;;6.47;3.92;;;;;;;18.98;57.83;99953.50;5364357;26;95457;-74
2024/04/08 03:22:31;;;;;;;5.72;4.05;;;;;;;18.95;57.92;99947.56;5447129;25;94886;-74
2024/04/08 03:24:57;;;;;;;6.50;3.92;;;;;;;18.92;58.52;99963.75;5423079;25;94652;-74
2024/04/08 03:27:23;;;;;;;7.43;4.35;;;;;;;18.84;57.59;99934.22;5390177;26;94705;-74
2024/04/08 03:29:50;;;;;;;4.60;3.83;;;;;;;18.73;58.36;99966.88;5453365;25;94658;-76
2024/04/08 03:32:16;;;;;;;7.75;4.00;;;;;;;18.70;58.58;99967.97;5396400;26;94745;-74
2024/04/08 03:34:42;;;;;;;8.65;4.20;;;;;;;18.53;59.61;99955.06;5394044;26;94819;-75
2024/04/08 03:37:07;;;;;;;6.60;4.45;;;;;;;18.51;58.70;99957.84;5395452;26;94728;-75
2024/04/08 03:39:32;;;;;;;5.30;4.18;;;;;;;18.57;59.34;99966.31;5391938;26;95447;-74
2024/04/08 03:41:58;;;;;;;5.38;3.80;;;;;;;18.46;59.42;99953.81;5446509;25;94908;-74
2024/04/08 03:44:23;;;;;;;9.45;4.20;;;;;;;18.40;59.29;99955.09;5388330;26;94824;-77
2024/04/08 03:46:49;;;;;;;8.23;4.60;;;;;;;18.20;60.36;99964.50;5393651;26;94501;-75
2024/04/08 03:49:15;;;;;;;6.50;4.30;;;;;;;18.02;60.85;99953.38;5426588;25;97011;-75
2024/04/08 03:51:40;;;;;;;8.80;4.53;;;;;;;18.23;60.47;99951.00;5453954;25;94695;-74
2024/04/08 03:54:06;;;;;;;8.68;4.85;;;;;;;18.25;60.13;99940.28;5393806;26;94758;-75
2024/04/08 03:56:31;;;;;;;7.70;5.07;;;;;;;18.10;60.43;99928.94;5391399;26;94647;-75
2024/04/08 03:58:57;;;;;;;7.35;4.25;;;;;;;18.23;60.73;99935.06;5453905;25;94662;-75
2024/04/08 04:01:22;;;;;;;6.28;4.63;;;;;;;18.19;61.07;99956.66;5391490;26;94736;-74
2024/04/08 04:03:48;;;;;;;7.90;4.18;;;;;;;18.15;61.08;99952.50;5399538;26;94637;-75
2024/04/08 04:06:13;;;;;;;5.53;4.55;;;;;;;17.92;61.28;99922.25;5395578;26;94583;-76
2024/04/08 04:08:39;;;;;;;5.65;4.28;;;;;;;18.15;61.51;99936.56;5387334;26;94149;-77
2024/04/08 04:11:05;;;;;;;5.47;4.47;;;;;;;18.28;60.44;99945.38;5395687;26;94696;-74
2024/04/08 04:13:31;;;;;;;8.55;4.65;;;;;;;18.05;61.54;99944.34;5394848;26;94587;-75
2024/04/08 04:15:56;;;;;;;9.80;4.65;;;;;;;18.06;60.61;99920.34;5389205;26;94701;-75
2024/04/08 04:18:22;;;;;;;8.18;4.78;;;;;;;17.88;61.16;99909.22;5391187;26;94628;-75
2024/04/08 04:20:47;;;;;;;5.85;4.18;;;;;;;17.79;62.12;99931.09;5361917;26;97373;-75
2024/04/08 04:23:14;;;;;;;8.02;4.60;;;;;;;17.77;62.32;99914.41;5425390;25;94631;-74
2024/04/08 04:25:40;;;;;;;6.72;4.38;;;;;;;17.82;62.06;99907.00;5392472;26;94691;-75
2024/04/08 04:28:05;;;;;;;7.22;4.20;;;;;;;18.14;61.42;99917.13;5414822;25;95222;-75
2024/04/08 04:30:31;;;;;;;5.07;4.47;;;;;;;18.10;60.98;99897.06;5389373;26;95413;-76
2024/04/08 04:32:58;;;;;;;7.03;4.75;;;;;;;18.31;60.11;99923.88;5394028;25;94995;-76
2024/04/08 04:35:24;;;;;;;6.95;4.22;;;;;;;18.18;60.45;99907.13;5376881;26;95688;-77
2024/04/08 04:37:50;;;;;;;6.55;4.10;;;;;;;18.47;60.15;99928.91;5358259;26;94636;-75
2024/04/08 04:40:16;;;;;;;6.80;4.00;;;;;;;18.46;59.58;99929.91;5407809;25;94647;-75
2024/04/08 04:42:45;;;;;;;5.47;3.67;;;;;;;18.15;60.25;99916.19;5387497;26;94666;-75
2024/04/08 04:45:11;;;;;;;8.75;4.65;;;;;;;18.13;61.20;99933.19;5433700;25;94634;-75
2024/04/08 04:47:36;;;;;;;7.00;4.20;;;;;;;18.34;60.48;99931.63;5344106;26;96880;-75
2024/04/08 04:50:03;;;;;;;6.60;4.60;;;;;;;18.21;60.63;99918.41;5407562;26;94643;-74
2024/04/08 04:52:29;;;;;;;7.65;3.80;;;;;;;18.25;60.60;99919.88;5401053;26;95424;-75
2024/04/08 04:54:55;;;;;;;3.90;3.45;;;;;;;18.19;60.23;99916.81;5363751;26;94751;-75
2024/04/08 04:57:21;;;;;;;13.85;4.18;;;;;;;18.12;61.05;99911.06;5392696;26;94574;-75
2024/04/08 04:59:46;;;;;;;5.93;4.20;;;;;;;18.13;61.01;99930.53;5406416;26;94608;-74
2024/04/08 05:02:12;;;;;;;9.18;3.95;;;;;;;18.15;60.67;99929.47;5394665;26;94999;-75
2024/04/08 05:04:38;;;;;;;5.88;3.63;;;;;;;18.33;60.21;99930.78;5388981;26;94499;-74
2024/04/08 05:07:04;;;;;;;6.13;4.00;;;;;;;18.15;60.66;99921.50;5389490;26;94593;-81
2024/04/08 05:09:30;;;;;;;5.85;4.28;;;;;;;18.02;61.25;99910.88;5371449;26;94731;-86
2024/04/08 05:11:55;;;;;;;6.25;4.10;;;;;;;18.14;60.81;99913.63;5353700;26;94652;-83
2024/04/08 05:14:21;;;;;;;3.90;3.40;;;;;;;18.02;61.38;99924.16;5373484;26;94686;-84
2024/04/08 05:16:49;;;;;;;6.45;3.50;;;;;;;18.05;60.57;99904.50;5387610;26;94649;-85
2024/04/08 05:19:15;;;;;;;5.75;3.15;;;;;;;18.37;59.80;99893.38;5373296;26;94710;-85
2024/04/08 05:21:40;;;;;;;5.82;3.47;;;;;;;18.41;58.91;99893.00;5364885;26;94632;-85
2024/04/08 05:24:06;;;;;;;6.00;3.30;;;;;;;18.51;59.10;99890.56;5387500;26;94868;-85
2024/04/08 05:26:32;;;;;;;7.97;3.30;;;;;;;18.67;58.64;99900.88;5354152;26;94650;-84
2024/04/08 05:28:58;;;;;;;6.10;2.97;;;;;;;18.76;57.85;99893.13;5353417;26;94619;-84
2024/04/08 05:31:23;;;;;;;5.13;2.95;;;;;;;19.03;57.33;99902.63;5347299;26;94688;-83
2024/04/08 05:33:49;;;;;;;5.65;3.13;;;;;;;19.05;57.14;99892.72;5377675;26;94672;-84
2024/04/08 05:36:15;;;;;;;6.80;2.70;;;;;;;19.07;57.01;99895.25;5350741;26;93887;-84
2024/04/08 05:38:40;;;;;;;6.93;3.17;;;;;;;19.15;56.88;99909.69;5369478;26;94695;-85
2024/04/08 05:41:06;;;;;;;4.28;2.92;;;;;;;19.13;57.09;99902.78;5384185;26;94526;-85
2024/04/08 05:43:31;;;;;;;7.22;3.08;;;;;;;19.23;56.78;99915.28;5378736;26;94442;-87
2024/04/08 05:45:57;;;;;;;6.20;2.67;;;;;;;19.43;56.31;99892.44;5377849;26;94360;-87
2024/04/08 05:48:23;;;;;;;4.57;2.90;;;;;;;19.57;55.81;99904.66;5343648;26;96581;-88
2024/04/08 05:50:48;;;;;;;4.68;2.80;;;;;;;19.81;55.41;99909.06;5379982;26;94682;-88
2024/04/08 05:53:14;;;;;;;7.53;4.00;;;;;;;20.05;55.19;99890.28;5381854;26;94705;-88
2024/04/08 05:55:40;;;;;;;5.03;2.67;;;;;;;20.34;54.85;99917.25;5371730;26;94679;-80
2024/04/08 05:58:07;;;;;;;6.45;3.58;;;;;;;20.61;54.01;99922.19;5408191;26;94559;-89
2024/04/08 06:00:35;;;;;;;6.35;3.50;;;;;;;20.51;53.40;99891.91;5379834;26;94528;-88
2024/04/08 06:03:01;;;;;;;7.47;3.35;;;;;;;21.01;52.98;99914.38;5348158;26;93653;-88
2024/04/08 06:05:27;;;;;;;9.05;3.40;;;;;;;21.28;51.96;99921.03;5375707;26;94775;-86
2024/04/08 06:07:53;;;;;;;12.10;4.07;;;;;;;21.50;51.70;99927.22;5388273;26;97784;-87
2024/04/08 06:10:21;;;;;;;9.13;3.80;;;;;;;21.32;51.91;99908.25;5347932;26;94768;-89
2024/04/08 06:12:46;;;;;;;4.13;3.30;;;;;;;21.56;51.15;99903.53;5346115;26;94611;-90
2024/04/08 06:15:13;;;;;;;4.15;2.92;;;;;;;21.76;50.33;99907.13;5423668;25;96510;-86
2024/04/08 06:17:39;;;;;;;5.38;3.42;;;;;;;22.18;50.15;99909.69;5418215;25;97093;-88
2024/04/08 06:20:05;;;;;;;7.47;3.25;;;;;;;22.45;48.94;99909.03;5383714;26;94684;-74
2024/04/08 06:22:31;;;;;;;5.40;3.00;;;;;;;22.72;48.94;99903.03;5379435;26;94552;-75
2024/04/08 06:24:57;;;;;;;5.13;2.95;;;;;;;22.75;48.13;99886.69;5410860;26;94639;-75
2024/04/08 06:27:22;;;;;;;5.38;2.78;;;;;;;22.50;49.14;99896.09;5409816;26;94763;-74
2024/04/08 06:29:48;;;;;;;6.82;2.70;;;;;;;22.67;48.77;99899.94;5404394;25;94734;-82
2024/04/08 06:32:13;;;;;;;11.23;3.17;;;;;;;22.83;48.76;99886.84;5353730;26;94657;-80
2024/04/08 06:34:39;;;;;;;8.73;3.05;;;;;;;22.56;48.38;99889.38;5376546;26;94686;-79
2024/04/08 06:37:04;;;;;;;7.80;2.63;;;;;;;22.43;48.83;99891.44;5341080;26;97933;-81
2024/04/08 06:39:30;;;;;;;11.90;2.83;;;;;;;22.79;47.97;99904.16;5371167;26;94627;-80
2024/04/08 06:41:55;;;;;;;3.88;2.38;;;;;;;22.72;48.00;99907.50;5347605;26;94625;-77
2024/04/08 06:44:21;;;;;;;4.40;2.13;;;;;;;22.93;47.55;99908.25;5375971;26;96979;-79
2024/04/08 06:46:46;;;;;;;6.18;2.25;;;;;;;23.03;46.66;99894.88;5375640;26;94594;-79
2024/04/08 06:49:12;;;;;;;7.80;2.55;;;;;;;23.18;46.83;99888.09;5378299;26;94661;-79
2024/04/08 06:51:37;;;;;;;11.60;2.92;;;;;;;23.53;47.08;99901.81;5392864;26;94650;-79
2024/04/08 06:54:04;;;;;;;8.23;2.50;;;;;;;23.67;45.96;99872.72;5435917;25;94535;-79
2024/04/08 06:56:29;;;;;;;10.05;2.30;;;;;;;24.24;45.30;99887.88;5375104;26;97820;-79
2024/04/08 06:58:55;;;;;;;4.25;2.33;;;;;;;25.07;44.12;99889.38;5367941;26;95624;-79
2024/04/08 07:01:20;;;;;;;7.43;2.35;;;;;;;25.51;42.86;99897.41;5371335;26;94746;-80
2024/04/08 07:03:47;;;;;;;5.60;2.55;;;;;;;26.47;42.40;99898.16;5376126;26;94719;-79
2024/04/08 07:06:13;;;;;;;3.47;2.13;;;;;;;26.17;42.06;99903.13;5374699;26;94646;-79
2024/04/08 07:08:38;;;;;;;8.15;2.20;;;;;;;26.33;41.14;99905.88;5392554;26;95424;-80
2024/04/08 07:11:04;;;;;;;5.57;2.30;;;;;;;26.14;42.14;99898.06;5360756;26;94490;-80
2024/04/08 07:13:29;;;;;;;4.28;2.50;;;;;;;26.84;40.96;99901.25;5342141;26;97618;-80
2024/04/08 07:15:56;;;;;;;4.43;1.98;;;;;;;26.86;40.37;99888.47;5395210;25;94666;-80
2024/04/08 07:18:24;;;;;;;3.85;2.10;;;;;;;27.49;39.82;99895.03;5390544;26;94649;-83
2024/04/08 07:20:50;;;;;;;10.32;2.40;;;;;;;28.06;38.84;99893.19;5365182;26;94668;-81
2024/04/08 07:23:15;;;;;;;8.85;2.38;;;;;;;28.15;37.55;99886.72;5363079;26;94503;-82
2024/04/08 07:25:41;;;;;;;7.20;2.17;;;;;;;28.10;37.47;99884.56;5375273;26;94787;-81
2024/04/08 07:28:07;;;;;;;12.55;2.33;;;;;;;28.80;36.04;99894.44;5374986;26;94583;-81
2024/04/08 07:30:35;;;;;;;12.93;2.38;;;;;;;29.31;35.17;99894.69;5375615;26;94671;-82
2024/04/08 07:33:00;;;;;;;9.48;1.77;;;;;;;28.86;35.23;99880.22;5399202;26;94641;-82
2024/04/08 07:35:26;;;;;;;6.88;1.67;;;;;;;28.88;36.18;99888.94;5381807;26;94729;-81
2024/04/08 07:37:51;;;;;;;5.43;2.30;;;;;;;28.47;37.33;99876.78;5380481;26;94642;-80
2024/04/08 07:40:17;;;;;;;9.82;2.30;;;;;;;29.24;35.72;99896.47;5383202;26;96570;-80
2024/04/08 07:42:43;;;;;;;3.17;1.63;;;;;;;30.01;34.06;99896.13;5402898;26;94783;-80
2024/04/08 07:45:08;;;;;;;9.00;2.20;;;;;;;30.15;32.92;99890.88;5373283;26;95818;-82
2024/04/08 07:47:34;;;;;;;11.00;2.20;;;;;;;31.06;32.30;99878.53;5386505;26;94451;-80
2024/04/08 07:50:01;;;;;;;4.20;1.85;;;;;;;30.72;32.13;99898.22;5354365;26;94870;-80
2024/04/08 07:52:26;;;;;;;6.65;2.03;;;;;;;31.83;31.38;99898.50;5371886;26;95201;-81
2024/04/08 07:54:53;;;;;;;8.85;1.70;;;;;;;31.98;30.26;99891.06;5373862;26;95511;-83
2024/04/08 07:57:19;;;;;;;8.75;2.50;;;;;;;32.03;30.60;99901.34;5379810;26;95002;-81
2024/04/08 07:59:44;;;;;;;7.47;1.70;;;;;;;32.91;29.61;99898.66;5402138;26;94955;-80
2024/04/08 08:02:10;;;;;;;4.05;1.98;;;;;;;32.33;29.90;99904.56;5386474;26;99166;-86
2024/04/08 08:04:35;;;;;;;5.32;1.67;;;;;;;32.23;30.28;99894.09;5317184;26;99937;-81
2024/04/08 08:07:01;;;;;;;15.70;2.45;;;;;;;32.59;29.30;99897.56;5374706;26;94689;-82
2024/04/08 08:09:26;;;;;;;3.78;1.67;;;;;;;34.68;28.00;99891.34;5385456;26;94925;-82
2024/04/08 08:11:52;;;;;;;18.23;2.30;;;;;;;35.35;26.28;99869.84;5380825;26;95349;-85
2024/04/08 08:14:17;;;;;;;14.73;2.00;;;;;;;35.38;25.49;99891.22;5365176;26;98512;-83
2024/04/08 08:16:43;;;;;;;15.63;2.60;;;;;;;35.76;25.86;99885.56;5375094;26;94607;-86
2024/04/08 08:19:09;;;;;;;14.13;1.90;;;;;;;33.55;27.11;99905.38;5398079;26;94661;-85
2024/04/08 08:21:34;;;;;;;14.05;1.75;;;;;;;33.36;27.13;99888.81;5404356;26;94743;-87
2024/04/08 08:24:00;;;;;;;4.75;1.90;;;;;;;32.88;27.39;99904.50;5406732;26;95392;-84
2024/04/08 08:26:32;;;;;;;13.43;1.80;;;;;;;33.46;27.20;99899.28;5390510;26;96615;-83
2024/04/08 08:28:57;;;;;;;7.30;1.70;;;;;;;33.11;27.62;99888.66;5355194;26;94642;-82
2024/04/08 08:31:23;;;;;;;8.93;1.50;;;;;;;33.04;27.32;99898.69;5397953;26;95361;-83
2024/04/08 08:33:51;;;;;;;11.35;1.90;;;;;;;32.63;27.43;99898.81;5404629;26;96664;-84
2024/04/08 08:36:16;;;;;;;19.10;1.70;;;;;;;32.61;27.06;99898.19;5374655;26;94695;-83
2024/04/08 08:38:42;;;;;;;14.27;1.95;;;;;;;33.19;26.79;99895.75;5391083;26;97094;-78
2024/04/08 08:41:08;;;;;;;7.32;1.92;;;;;;;31.42;28.54;99912.00;5378030;26;95172;-78
2024/04/08 08:43:37;;;;;;;8.18;2.22;;;;;;;30.76;29.32;99895.97;5401553;26;95452;-78
2024/04/08 08:46:05;;;;;;;11.90;1.80;;;;;;;31.04;29.35;99886.03;5402671;26;95064;-79
2024/04/08 08:48:31;;;;;;;11.45;1.90;;;;;;;32.01;28.55;99903.41;5349712;26;94561;-76
2024/04/08 08:50:58;;;;;;;10.60;1.83;;;;;;;33.12;26.43;99901.19;5384579;26;95337;-80
2024/04/08 08:53:23;;;;;;;15.43;2.33;;;;;;;34.82;24.90;99903.81;5373882;26;94890;-76
2024/04/08 08:55:50;;;;;;;15.88;2.28;;;;;;;35.66;23.63;99890.72;5374001;26;94631;-73
2024/04/08 08:58:16;;;;;;;14.77;2.25;;;;;;;35.97;23.19;99900.66;5403526;26;94025;-77
2024/04/08 09:00:41;;;;;;;11.43;2.13;;;;;;;37.16;22.19;99892.69;5374654;26;94663;-75
2024/04/08 09:03:12;;;;;;;35.15;2.80;;;;;;;37.64;21.56;99893.53;5375890;26;94591;-75
2024/04/08 09:05:38;;;;;;;26.83;2.63;;;;;;;36.37;22.60;99902.91;5376544;26;95134;-77
2024/04/08 09:08:04;;;;;;;13.50;1.73;;;;;;;35.95;22.89;99896.47;5406717;26;94604;-83
2024/04/08 09:10:48;;;;;;;10.88;2.40;;;;;;;37.07;22.12;99896.84;5358247;26;99452;-86
2024/04/08 09:13:25;;;;;;;11.15;2.03;;;;;;;38.17;21.36;99892.47;5340193;26;99861;-85
2024/04/08 09:15:50;;;;;;;12.73;3.80;;;;;;;35.80;22.94;99872.31;5351813;26;96522;-87
2024/04/08 09:18:17;;;;;;;17.45;2.03;;;;;;;37.99;20.74;99890.75;5443905;25;95770;-85
2024/04/08 09:20:43;;;;;;;11.60;1.73;;;;;;;37.25;21.15;99871.28;5355543;26;99932;-85
2024/04/08 09:23:09;;;;;;;7.72;1.77;;;;;;;35.99;22.62;99875.88;5456272;25;95413;-85
2024/04/08 09:25:35;;;;;;;23.52;3.47;;;;;;;33.56;24.49;99861.63;5419570;25;94743;-85
2024/04/08 09:28:00;;;;;;;9.85;1.55;;;;;;;33.71;25.29;99876.88;5387946;26;95497;-85
2024/04/08 09:30:26;;;;;;;19.40;3.30;;;;;;;32.58;25.71;99893.16;5403460;25;95370;-84
2024/04/08 09:32:52;;;;;;;12.50;1.98;;;;;;;33.22;25.70;99878.19;5453196;25;95340;-86
2024/04/08 09:35:17;;;;;;;16.70;2.40;;;;;;;31.62;27.04;99863.28;5456994;25;94663;-83
2024/04/08 09:37:43;;;;;;;8.55;1.73;;;;;;;31.53;27.85;99874.34;5428782;25;95357;-83
2024/04/08 09:40:11;;;;;;;10.20;1.85;;;;;;;30.70;28.34;99845.28;5393169;26;96775;-84
2024/04/08 09:42:37;;;;;;;9.18;2.00;;;;;;;29.67;29.87;99855.31;5402927;26;96556;-85
2024/04/08 09:45:03;;;;;;;11.25;1.90;;;;;;;29.69;30.31;99880.28;5465941;25;94788;-81
2024/04/08 09:47:29;;;;;;;10.15;2.63;;;;;;;28.73;31.38;99882.66;5399479;26;95101;-81
2024/04/08 09:49:57;;;;;;;17.15;1.92;;;;;;;28.60;31.00;99845.47;5364042;26;98184;-78
2024/04/08 09:52:24;;;;;;;8.27;1.80;;;;;;;28.55;31.54;99863.25;5378069;26;99354;-77
2024/04/08 09:54:51;;;;;;;7.88;1.67;;;;;;;28.88;31.00;99866.50;5380568;26;94700;-75
2024/04/08 09:57:22;;;;;;;13.60;2.00;;;;;;;28.31;31.02;99850.72;5405304;25;94902;-83
2024/04/08 09:59:58;;;;;;;11.43;1.67;;;;;;;28.36;32.06;99851.00;5376266;26;94969;-78
2024/04/08 10:02:33;;;;;;;6.00;1.58;;;;;;;28.56;32.18;99862.22;5434134;25;95606;-82
2024/04/08 10:05:03;;;;;;;10.70;1.55;;;;;;;28.28;31.84;99856.47;5375653;26;94614;-83
2024/04/08 10:07:29;;;;;;;16.08;1.40;;;;;;;28.78;31.38;99849.72;5376764;26;97585;-86
2024/04/08 10:09:55;;;;;;;5.88;1.70;;;;;;;28.50;30.62;99846.72;5434628;25;95176;-84
2024/04/08 10:12:32;;;;;;;13.20;3.03;;;;;;;28.62;31.39;99843.44;5438222;25;95402;-87
2024/04/08 10:15:14;;;;;;;9.15;1.80;;;;;;;29.09;30.38;99846.97;5382142;26;94720;-80
2024/04/08 10:17:46;;;;;;;6.82;2.03;;;;;;;28.95;30.88;99856.69;5392442;26;94743;-82
2024/04/08 10:20:17;;;;;;;9.45;2.47;;;;;;;29.34;29.84;99832.16;5393454;26;94784;-81
2024/04/08 10:22:44;;;;;;;10.00;1.90;;;;;;;29.39;29.33;99833.47;5383270;26;97088;-82
2024/04/08 10:25:28;;;;;;;14.25;1.70;;;;;;;28.57;30.57;99843.16;5459946;25;94646;-75
2024/04/08 10:28:18;;;;;;;8.25;1.67;;;;;;;28.57;30.68;99858.50;5398722;26;94775;-83
2024/04/08 10:30:46;;;;;;;5.05;1.60;;;;;;;28.75;29.96;99842.84;5376148;26;98268;-77
2024/04/08 10:33:12;;;;;;;6.28;1.63;;;;;;;28.26;30.70;99845.00;5374758;26;95915;-77
2024/04/08 10:35:38;;;;;;;9.25;2.00;;;;;;;28.39;31.24;99838.03;5435585;25;94755;-79
2024/04/08 10:38:04;;;;;;;11.63;1.80;;;;;;;28.20;30.86;99836.59;5374495;26;94658;-79
2024/04/08 10:40:31;;;;;;;2.97;1.40;;;;;;;28.30;30.68;99849.84;5376823;26;95954;-81
2024/04/08 10:42:56;;;;;;;4.78;1.45;;;;;;;28.23;31.03;99821.91;5379107;26;96256;-79
2024/04/08 10:45:22;;;;;;;11.30;1.60;;;;;;;28.30;30.80;99822.03;5346607;26;94580;-81
2024/04/08 10:47:48;;;;;;;9.95;1.80;;;;;;;28.28;30.83;99843.00;5397419;26;94707;-81
2024/04/08 10:50:13;;;;;;;8.88;1.75;;;;;;;27.85;31.54;99842.53;5429136;25;94616;-86
2024/04/08 10:52:40;;;;;;;9.85;2.30;;;;;;;28.14;31.10;99842.72;5372445;26;94700;-82
2024/04/08 10:55:07;;;;;;;5.63;1.50;;;;;;;28.57;30.99;99843.16;5376815;26;94672;-85
2024/04/08 10:57:32;;;;;;;9.77;1.83;;;;;;;28.52;31.41;99829.34;5435454;25;93967;-85
2024/04/08 10:59:58;;;;;;;7.60;2.10;;;;;;;28.48;33.19;99830.72;5436020;25;94459;-74
2024/04/08 11:02:24;;;;;;;4.82;1.40;;;;;;;28.39;32.27;99807.47;5433642;25;95159;-76
2024/04/08 11:05:19;;;;;;;8.98;1.45;;;;;;;28.47;31.09;99810.13;5375854;26;94587;-76
2024/04/08 11:07:45;;;;;;;10.85;2.50;;;;;;;28.42;31.71;99820.63;5374154;26;95116;-76
2024/04/08 11:10:15;;;;;;;11.15;1.75;;;;;;;28.12;32.01;99820.47;5337623;26;99233;-75
2024/04/08 11:12:41;;;;;;;11.45;1.95;;;;;;;28.11;31.54;99816.09;5367168;26;98666;-73
2024/04/08 11:15:09;;;;;;;2.88;1.40;;;;;;;28.29;32.15;99823.91;5428768;25;94913;-73
2024/04/08 11:17:35;;;;;;;4.65;1.58;;;;;;;27.95;31.99;99813.47;5373269;26;94869;-74
2024/04/08 11:20:02;;;;;;;8.98;1.50;;;;;;;28.00;32.08;99824.59;5373574;26;95398;-74
2024/04/08 11:22:27;;;;;;;3.90;1.40;;;;;;;28.03;32.44;99816.13;5372801;26;95293;-75
2024/04/08 11:24:54;;;;;;;2.75;1.23;;;;;;;27.82;32.11;99808.66;5374437;26;94696;-77